EGQS

RAF Lossiemouth Airport

Lossiemouth, United Kingdom
METAR EGQS 161350Z 27010KT 9999 FEW018 SCT035 04/00 Q1016 BLU
Observed Flight Rules
Dec-16 @ 13:50 UTC (an hour ago) Visual Flight Rules
Wind Visibility Clouds
270° at 10 knots 10,000+ meters
  • Few at 1,800' AGL
  • Scattered at 3,500' AGL
Temperatures Readings
Current 4°C / 39°F
Dewpoint 0°C / 32°F
Humidity 75%
Altimeter 30" Hg
Pressure 1016 hPa
Elevation 13
METAR EGQS 161350Z 27010KT 9999 FEW018 SCT035 04/00 Q1016 BLU
Observed Flight Rules
Dec-16 @ 13:50 UTC
(an hour ago)
VFR
Wind Visibility
270° at 10 knots 10,000+ meters
Clouds
  • Few at 1,800' AGL
  • Scattered at 3,500' AGL
Temperature Dewpoint
4°C / 39°F 0°C / 32°F
Humidity Altimeter Pressure
75% 30" Hg 1016 hPa